North Petersburg, New York
Current Conditions -  °F | °C
As of 2:52 PM on Thursday 30 Oct 2014 (Local Time) from KAQW Reporting Station
Overcast Overcast  
Wind Chill: 51°   Ceiling: 5500
Heat Index: 51°   Visibility: 10mi
Dew Point: 36°   Wind: 6mph
Humidity: 56%   Direction: 250°WSW
Pressure: 29.94"   Gusts: NA
Location:  42.7192°N, 73.3641°W
Report Text: KAQW 301852Z AUTO 25005KT 10SM SCT044 OVC055 11/02 A2994 RMK AO2 SLP144 T01060022
Loading
Personal Weather Stations






























Interactive Weather Map
Tropical Storm Tracking
New forecast layout! Learn more

10-Day Weather Forecast

Advertisements
Track Severe Weather on mobile